Date,TemperatureHighF,TemperatureAvgF,TemperatureLowF,DewpointHighF,DewpointAvgF,DewpointLowF,HumidityHigh,HumidityAvg,HumidityLow,PressureMaxIn,PressureMinIn,WindSpeedMaxMPH,WindSpeedAvgMPH,GustSpeedMaxMPH,PrecipitationSumIn
2013-1-1,32.2,26.3,12.3,26.0,12.4,-1.0,77,57,42,29.85,29.62,23,10,39,0.00
2013-1-2,23.8,14.0,2.6,13.0,1.8,-11.0,67,59,44,30.06,29.83,16,8,28,0.00
2013-1-3,20.2,10.1,0.3,5.0,-6.6,-12.0,70,48,28,30.07,29.93,14,6,21,0.00
2013-1-4,36.8,27.9,12.9,20.0,17.1,6.0,82,65,48,29.91,29.73,21,8,30,0.00
2013-1-5,36.8,30.8,21.1,22.0,16.5,12.0,70,57,39,30.19,29.74,24,7,30,0.00
2013-1-6,39.8,30.1,19.4,25.0,21.8,12.0,88,72,55,30.14,29.86,19,5,27,0.00
2013-1-7,33.1,29.6,22.9,27.0,16.8,7.0,79,60,36,30.32,29.89,15,6,24,0.00
2013-1-8,43.6,33.6,22.4,22.0,19.1,11.0,78,57,39,30.29,30.18,14,5,24,0.00
2013-1-9,41.2,33.2,24.2,31.0,23.3,18.0,80,67,54,30.33,29.90,23,5,31,0.00
2013-1-10,43.1,37.9,30.3,26.0,21.9,20.0,69,53,42,30.46,29.94,34,12,46,0.00
2013-1-11,36.3,31.3,26.1,31.0,23.9,20.0,94,75,57,30.45,30.16,10,2,15,0.09
2013-1-12,40.1,36.1,32.5,39.0,35.2,31.0,98,96,94,30.15,30.06,7,1,10,0.02
2013-1-13,47.9,41.5,37.0,48.0,41.5,37.0,100,100,98,30.08,29.89,18,3,19,0.00
2013-1-14,58.9,45.6,35.6,49.0,36.5,21.0,100,74,33,30.18,29.72,21,6,28,0.00
2013-1-15,37.9,32.9,27.2,24.0,21.9,20.0,82,65,51,30.25,30.14,12,2,20,0.00
2013-1-16,30.9,29.2,27.6,29.0,26.1,20.0,95,88,68,30.18,29.74,6,1,7,0.36
2013-1-17,38.6,30.3,23.0,29.0,20.9,3.0,95,70,41,30.04,29.75,15,6,28,0.00
2013-1-18,22.7,15.6,7.4,6.0,-4.4,-9.0,56,42,27,30.36,30.00,22,8,39,0.00
2013-1-19,42.5,32.0,15.9,24.0,15.2,3.0,60,51,39,30.28,29.78,23,9,27,0.00
2013-1-20,48.2,36.1,23.8,28.0,18.5,5.0,75,51,24,29.83,29.45,39,14,46,0.00
2013-1-21,25.1,20.2,14.6,15.0,3.8,-6.0,88,52,34,29.99,29.75,22,6,31,0.00
2013-1-22,23.0,15.8,6.5,16.0,4.6,-10.0,89,64,34,29.99,29.69,22,6,29,0.01
2013-1-23,11.2,5.0,-0.8,-6.0,-16.2,-21.0,61,38,23,30.07,29.98,19,8,30,0.00
2013-1-24,15.6,5.5,-3.5,-12.0,-16.4,-18.0,50,36,24,30.16,30.02,28,11,35,0.00
2013-1-25,19.7,11.5,3.7,3.0,-11.4,-15.0,64,36,21,30.24,30.01,15,7,27,0.00
2013-1-26,19.9,13.1,7.7,7.0,-4.1,-14.0,78,50,25,30.16,29.95,21,8,29,0.00
2013-1-27,27.9,16.6,9.9,0.0,-4.3,-10.0,65,42,22,30.41,30.16,20,7,24,0.00
2013-1-28,24.8,19.3,11.2,19.0,8.4,-6.0,90,65,35,30.40,29.98,7,2,10,0.18
2013-1-29,34.3,26.6,18.1,29.0,22.8,15.0,95,86,70,30.14,29.99,8,2,11,0.03
2013-1-30,55.6,41.8,30.7,55.0,41.2,30.0,100,97,95,30.09,29.36,19,7,30,0.03
2013-1-31,57.6,42.7,27.0,57.0,31.6,7.0,99,68,40,29.45,28.82,32,18,50,0.76
2013-2-1,30.3,24.1,17.3,10.0,4.5,0.0,53,43,33,30.00,29.46,26,12,36,0.00
2013-2-2,26.1,20.3,12.1,11.0,2.2,-1.0,63,46,35,30.15,29.98,13,6,22,0.00
2013-2-3,26.6,22.3,15.4,16.0,13.8,10.0,82,70,56,29.99,29.66,9,1,11,0.00
2013-2-4,28.2,21.3,15.9,15.0,4.5,-2.0,74,50,28,29.84,29.64,29,10,36,0.00
2013-2-5,29.0,19.8,12.3,12.0,4.7,0.0,66,53,34,29.96,29.84,10,3,18,0.00
2013-2-6,34.4,26.2,19.9,22.0,13.4,-2.0,90,62,35,30.22,29.86,20,6,27,0.00
2013-2-7,26.1,18.2,9.3,-3.0,-5.3,-9.0,55,36,25,30.46,30.23,11,3,14,0.00
2013-2-8,20.6,17.6,14.1,15.0,10.2,-7.0,88,75,29,30.44,29.72,22,5,27,0.26
2013-2-9,18.0,14.3,10.2,15.0,10.5,5.0,89,85,78,30.16,29.65,24,14,41,0.00
2013-2-10,31.9,20.3,10.2,21.0,10.5,4.0,78,66,53,30.35,30.16,15,6,26,0.01
2013-2-11,29.7,23.2,16.2,29.0,18.8,7.0,96,83,60,30.28,29.57,9,2,12,0.22
2013-2-12,40.3,36.0,32.2,33.0,28.5,25.0,97,75,55,29.66,29.54,27,11,36,0.00
2013-2-14,41.9,35.4,27.2,21.0,18.2,16.0,68,51,36,29.91,29.78,13,3,18,0.00
2013-2-15,50.7,36.8,25.0,27.0,22.8,18.0,85,59,37,29.91,29.82,14,4,25,0.00
2013-2-16,39.2,32.5,23.9,30.0,21.0,8.0,93,64,45,29.89,29.68,12,4,19,0.04
2013-2-17,24.1,17.8,12.1,11.0,2.4,-3.0,82,53,39,29.68,29.34,32,17,46,0.00
2013-2-18,27.3,18.7,9.5,-3.0,-5.4,-9.0,54,37,22,30.07,29.60,32,15,41,0.00
2013-2-19,41.2,31.7,19.4,37.0,15.8,-3.0,96,55,29,30.10,29.51,14,4,23,0.10
2013-2-20,37.3,29.8,23.0,36.0,17.8,10.0,96,63,42,29.67,29.45,26,13,39,0.01
2013-2-21,29.5,23.3,18.9,13.0,9.5,5.0,71,56,42,30.14,29.67,26,12,37,0.00
2013-2-22,38.6,29.5,20.0,21.0,16.4,14.0,81,60,39,30.34,30.16,13,4,18,0.00
2013-2-23,34.3,31.2,28.4,30.0,26.0,21.0,95,81,71,30.26,29.89,12,3,16,0.07
2013-2-24,33.7,31.9,30.0,33.0,30.8,29.0,96,96,94,29.88,29.68,8,0,13,0.76
2013-2-25,41.2,32.6,26.9,36.0,29.4,26.0,97,88,71,30.17,29.84,7,1,12,0.00
2013-2-26,41.5,34.4,30.1,32.0,28.8,25.0,93,81,61,30.27,30.12,11,1,13,0.00
2013-2-27,37.6,33.5,31.6,37.0,31.4,27.0,97,92,79,30.12,29.56,14,4,22,1.18
2013-2-28,42.3,35.3,30.6,36.0,32.5,30.0,98,90,74,29.56,29.47,9,1,12,0.01
2013-3-1,38.0,34.6,31.5,33.0,27.3,25.0,94,76,61,29.61,29.47,16,6,23,0.00
2013-3-2,39.8,33.6,29.7,27.0,23.8,22.0,76,68,57,29.61,29.57,13,6,20,0.00
2013-3-3,38.6,31.9,27.0,28.0,24.1,22.0,86,73,59,29.58,29.51,16,6,24,0.01
2013-3-4,35.9,29.8,26.4,27.0,21.3,18.0,87,71,54,29.70,29.53,22,11,32,0.01
2013-3-5,44.1,34.7,26.1,29.0,23.8,19.0,82,65,47,30.02,29.71,16,5,23,0.00
2013-3-6,36.9,33.5,30.9,32.0,29.0,25.0,95,84,68,30.10,30.00,21,4,24,0.04
2013-3-7,34.0,30.2,28.2,28.0,26.3,23.0,95,85,70,30.08,29.98,18,8,25,0.13
2013-3-8,40.2,32.8,28.1,36.0,27.5,20.0,96,83,55,30.14,29.94,15,8,22,0.31
2013-3-9,55.9,38.4,26.1,26.0,18.4,5.0,84,52,13,30.29,30.12,11,5,16,0.00
2013-3-10,46.5,34.8,23.5,29.0,25.6,21.0,93,72,45,30.34,30.22,10,4,20,0.00
2013-3-11,52.6,40.1,29.7,37.0,29.9,24.0,93,70,35,30.23,30.05,16,8,20,0.00
2013-3-12,49.9,44.7,38.8,50.0,43.9,37.0,99,97,84,30.06,29.63,20,9,24,0.44
2013-3-13,47.3,40.3,31.9,44.0,26.7,18.0,98,61,34,29.70,29.63,16,8,24,0.00
2013-3-14,32.8,28.3,18.4,22.0,13.0,4.0,70,53,42,29.76,29.62,21,10,32,0.00
2013-3-15,38.6,26.3,14.9,28.0,10.7,1.0,89,55,24,29.79,29.57,27,9,30,0.00
2013-3-16,36.3,29.4,22.5,24.0,10.5,6.0,77,47,29,29.82,29.62,18,5,27,0.00
2013-3-17,33.5,25.3,18.1,10.0,5.0,-2.0,70,44,26,30.25,29.82,28,7,31,0.00
2013-3-18,36.9,24.7,11.7,22.0,1.0,-4.0,79,39,18,30.39,30.19,10,4,15,0.00
2013-3-19,32.9,28.9,23.5,31.0,27.0,22.0,94,92,82,30.18,29.63,13,4,23,0.91
2013-3-20,35.3,28.2,22.4,24.0,19.9,16.0,92,73,54,29.73,29.62,24,9,32,0.02
2013-3-21,40.9,29.1,19.1,22.0,13.5,7.0,80,56,25,29.73,29.53,14,4,16,0.00
2013-3-22,38.5,30.1,22.1,23.0,16.5,12.0,75,59,35,29.66,29.55,18,7,23,0.00
2013-3-23,39.6,31.5,24.2,20.0,17.2,15.0,77,57,36,29.71,29.57,27,12,38,0.00
2013-3-24,44.2,36.5,29.0,22.0,20.6,19.0,70,54,39,29.75,29.68,19,8,27,0.00
2013-3-25,42.5,34.4,26.4,27.0,23.1,19.0,75,64,48,29.72,29.48,10,2,18,0.00
2013-3-26,48.5,38.7,32.1,28.0,21.3,15.0,77,53,27,29.72,29.51,20,5,24,0.00
2013-3-27,50.7,39.7,29.4,31.0,21.7,18.0,79,51,31,29.82,29.69,19,7,27,0.00
2013-3-28,48.3,39.8,33.8,33.0,29.9,25.0,92,70,42,29.96,29.82,13,3,20,0.00
2013-3-29,55.0,43.1,36.2,32.0,29.8,27.0,74,61,35,29.98,29.92,15,5,20,0.00
2013-3-30,53.8,42.5,33.4,30.0,20.5,10.0,79,47,20,30.03,29.95,13,4,22,0.00
2013-3-31,56.9,43.2,29.3,38.0,21.8,13.0,92,48,21,30.04,29.70,16,5,27,0.05
2013-4-1,57.5,41.5,30.9,43.0,32.1,8.0,98,73,34,29.69,29.44,25,8,36,0.29
2013-4-2,36.5,30.4,25.1,18.0,9.5,3.0,53,42,29,29.83,29.69,35,14,38,0.00
2013-4-3,44.1,33.3,25.4,16.0,7.9,2.0,63,37,19,30.06,29.83,31,14,38,0.00
2013-4-4,54.7,39.7,27.5,20.0,12.2,7.0,55,36,16,30.22,29.93,19,9,25,0.00
2013-4-5,58.3,43.7,34.3,25.0,21.6,14.0,64,45,19,29.93,29.60,24,8,28,0.00
2013-4-6,43.8,34.3,25.6,19.0,5.4,-2.0,58,32,16,30.26,29.82,25,10,35,0.00
2013-4-7,57.2,42.9,26.0,38.0,19.6,1.0,77,41,23,30.26,29.89,22,8,35,0.00
2013-4-8,62.4,50.2,40.5,39.0,34.0,27.0,91,59,27,30.02,29.88,19,6,27,0.00
2013-4-9,65.5,51.9,41.8,47.0,40.3,35.0,94,67,40,30.00,29.80,16,4,31,0.04
2013-4-10,57.0,49.7,44.1,49.0,45.1,38.0,97,85,68,29.92,29.80,9,2,16,0.52
2013-4-11,45.5,41.8,35.9,44.0,34.3,23.0,97,77,42,30.08,29.79,13,5,18,0.05
2013-4-12,36.8,33.1,31.2,32.0,29.9,27.0,96,88,68,30.13,29.79,11,2,15,0.47
2013-4-13,51.7,40.7,31.9,38.0,33.3,31.0,97,77,51,29.88,29.74,12,3,25,0.07
2013-4-14,52.3,43.0,35.2,35.0,29.5,24.0,82,61,35,30.14,29.84,20,7,29,0.00
2013-4-15,58.7,43.2,31.9,35.0,29.7,27.0,81,62,34,30.30,30.15,15,4,21,0.00
2013-4-16,67.1,51.0,36.9,51.0,40.0,31.0,82,68,39,30.31,29.97,24,10,37,0.00
2013-4-17,62.9,53.9,44.3,52.0,32.1,24.0,89,48,23,30.26,29.97,20,9,27,0.00
2013-4-18,62.4,49.2,32.9,40.0,28.2,25.0,80,47,29,30.37,30.07,20,6,27,0.00
2013-4-19,72.3,61.4,49.8,61.0,53.6,39.0,94,77,55,30.07,29.53,25,10,40,0.08
2013-4-20,64.0,48.9,37.3,62.0,34.6,17.0,93,62,34,30.14,29.53,26,11,37,0.24
2013-4-21,52.0,40.7,30.9,22.0,15.9,11.0,58,39,21,30.61,30.15,20,6,24,0.00
2013-4-22,51.9,40.1,27.9,31.0,24.0,17.0,82,56,26,30.70,30.54,19,4,22,0.00
2013-4-23,38.9,35.7,30.6,38.0,33.5,28.0,96,92,83,30.54,30.11,13,2,14,0.00
2013-4-24,75.8,55.9,38.6,50.0,41.2,31.0,98,66,20,30.10,29.71,14,6,25,0.00
2013-4-25,60.9,53.1,44.1,49.0,30.8,18.0,90,47,20,30.21,29.70,23,9,31,0.04
2013-4-26,60.1,48.0,34.6,32.0,27.2,20.0,68,46,28,30.36,30.21,13,2,18,0.00
2013-4-27,65.3,51.0,35.3,36.0,31.8,28.0,86,52,26,30.35,30.21,10,3,15,0.00
2013-4-28,69.9,54.1,37.6,39.0,34.3,31.0,85,51,25,30.26,30.12,12,4,24,0.00
2013-4-29,70.6,56.6,43.5,44.0,33.8,27.0,62,44,25,30.18,30.10,19,5,22,0.00
2013-4-30,70.8,59.2,48.2,31.0,25.2,19.0,40,28,19,30.29,30.17,15,4,21,0.00
2013-5-1,73.3,56.9,38.5,34.0,28.0,23.0,65,36,17,30.39,30.29,13,4,20,0.00
2013-5-2,80.1,58.0,44.9,44.0,36.0,29.0,72,48,19,30.43,30.26,10,2,26,0.00
2013-5-3,65.3,51.8,37.6,44.0,38.7,33.0,89,64,39,30.46,30.31,13,3,19,0.00
2013-5-4,68.3,52.8,39.6,44.0,37.7,28.0,93,62,26,30.31,30.20,14,3,19,0.00
2013-5-5,68.1,49.9,32.2,40.0,34.5,30.0,96,62,27,30.27,30.16,13,4,16,0.00
2013-5-6,74.4,54.9,35.3,47.0,37.7,30.0,96,61,21,30.20,30.06,12,4,19,0.00
2013-5-7,80.3,64.2,47.9,55.0,46.2,28.0,96,61,15,30.10,30.00,10,4,18,0.00
2013-5-8,72.8,62.3,52.6,63.0,56.7,51.0,96,82,60,30.13,29.98,13,4,33,0.00
2013-5-9,67.9,59.6,55.9,59.0,56.7,55.0,97,90,66,29.98,29.82,9,2,14,0.01
2013-5-10,77.9,64.9,52.0,59.0,53.8,49.0,99,71,36,29.89,29.82,11,3,14,0.00
2013-5-11,66.1,62.0,57.3,62.0,58.0,53.0,96,87,75,29.82,29.62,16,7,26,0.18
2013-5-12,67.8,57.6,46.0,59.0,45.7,24.0,97,68,32,29.71,29.50,16,5,30,0.00
2013-5-13,53.6,45.8,39.1,31.0,26.7,24.0,68,49,34,29.98,29.72,24,8,31,0.00
2013-5-14,57.5,46.5,34.9,32.0,28.3,22.0,82,52,29,29.99,29.92,18,5,26,0.00
2013-5-15,65.2,49.8,37.0,51.0,36.2,26.0,94,64,24,29.98,29.59,23,5,25,0.07
2013-5-16,77.4,63.8,48.8,51.0,39.9,29.0,93,49,21,29.75,29.57,28,9,37,0.00
2013-5-17,67.9,56.1,46.5,42.0,37.6,32.0,74,53,27,30.15,29.76,20,6,27,0.00
2013-5-18,73.0,57.7,42.2,47.0,38.5,31.0,86,54,23,30.24,30.15,10,2,18,0.00
2013-5-19,70.1,56.1,48.0,54.0,49.8,45.0,96,81,51,30.27,30.13,12,4,19,0.05
2013-5-20,79.2,64.9,54.2,63.0,58.1,53.0,98,81,54,30.13,29.87,13,3,18,0.01
2013-5-21,74.0,59.8,48.9,64.0,56.5,47.0,97,89,65,29.98,29.83,13,2,20,0.07
2013-5-22,61.0,54.3,49.2,58.0,52.6,48.0,99,94,87,29.95,29.82,13,2,32,0.76
2013-5-23,73.7,61.2,51.1,68.0,59.5,50.0,99,94,76,29.86,29.71,16,5,26,0.18
2013-5-24,69.4,59.4,45.2,65.0,56.1,44.0,98,89,69,29.78,29.56,18,6,28,0.46
2013-5-25,46.1,43.4,36.6,45.0,42.2,35.0,98,95,85,29.78,29.67,20,8,28,0.36
2013-5-26,53.8,45.6,36.6,39.0,36.5,35.0,94,73,53,30.02,29.65,21,10,33,0.01
2013-5-27,68.8,54.9,38.6,41.0,36.2,32.0,91,55,26,30.12,30.02,18,6,28,0.00
2013-5-28,72.7,57.6,41.6,46.0,41.1,37.0,90,58,30,30.18,30.09,12,2,19,0.00
2013-5-29,64.2,58.7,52.5,61.0,56.2,45.0,96,91,77,30.11,29.92,9,1,15,0.29
2013-5-30,86.1,73.6,60.9,66.0,62.3,60.0,98,71,42,30.01,29.94,12,6,22,0.00
2013-5-31,91.2,79.4,65.5,67.0,62.2,57.0,89,59,34,30.01,29.86,12,5,21,0.00
2013-6-1,91.2,80.2,69.8,68.0,63.4,56.0,78,59,32,29.88,29.76,14,6,21,0.00
2013-6-2,89.3,76.6,67.6,69.0,65.2,60.0,95,71,38,29.78,29.60,29,6,33,0.17
2013-6-3,77.9,67.9,57.0,66.0,58.3,45.0,96,75,41,29.76,29.68,18,5,24,0.06
2013-6-4,68.4,58.8,49.2,45.0,42.1,37.0,72,55,39,30.03,29.76,22,6,29,0.00
2013-6-5,73.3,61.0,48.3,50.0,43.7,37.0,85,57,28,30.13,30.03,11,2,13,0.00
2013-6-6,71.6,61.1,51.7,55.0,49.3,44.0,85,66,46,30.13,30.03,12,2,16,0.00
2013-6-7,56.0,52.1,49.5,53.0,50.4,47.0,97,94,86,30.05,29.82,10,2,14,1.00
2013-6-8,74.6,60.8,50.1,60.0,55.3,49.0,100,84,59,29.91,29.62,14,7,21,0.77
2013-6-10,68.8,62.3,56.3,59.0,54.6,-99.9,96,79,67,30.15,29.96,10,-30,16,0.20
2013-6-11,58.4,55.8,53.3,55.0,54.4,53.0,97,94,87,29.95,29.53,9,1,20,0.92
2013-6-12,67.4,59.3,53.8,56.0,52.9,50.0,98,81,59,29.77,29.50,23,7,33,0.01
2013-6-13,64.2,56.3,52.2,57.0,52.5,49.0,97,87,62,29.76,29.65,9,1,16,0.25
2013-6-14,73.7,60.7,51.0,57.0,52.0,48.0,98,76,41,29.73,29.61,10,2,18,0.34
2013-6-15,74.9,64.7,50.5,52.0,45.3,39.0,84,52,29,29.87,29.74,15,5,23,0.00
2013-6-16,73.2,65.1,56.5,59.0,51.8,45.0,82,63,39,29.87,29.63,15,5,19,0.00
2013-6-17,80.3,66.5,59.5,62.0,58.2,53.0,97,77,41,29.83,29.71,21,6,36,0.11
2013-6-18,63.7,59.4,56.2,60.0,56.0,52.0,100,89,76,29.90,29.82,8,1,14,0.04
2013-6-19,71.6,60.9,50.1,54.0,47.9,40.0,97,67,33,30.09,29.87,9,2,15,0.00
2013-6-20,76.5,64.0,48.8,53.0,46.2,42.0,86,55,30,30.20,30.10,13,2,18,0.00
2013-6-21,81.6,69.6,58.3,59.0,52.7,45.0,84,58,30,30.18,30.14,9,3,14,0.00
2013-6-22,82.4,71.3,61.3,65.0,59.7,50.0,88,68,46,30.15,30.03,10,3,19,0.00
2013-6-23,87.8,75.2,63.4,73.0,66.2,61.0,96,75,53,30.06,29.89,12,4,22,0.01
2013-6-24,89.9,77.7,68.3,74.0,67.4,65.0,92,72,44,29.92,29.81,15,6,23,0.05
2013-6-25,87.4,75.2,67.1,70.0,66.7,63.0,98,77,50,29.86,29.66,15,5,20,0.32
2013-6-26,77.0,69.2,65.3,70.0,67.6,65.0,100,95,75,29.78,29.65,8,1,14,1.68
2013-6-27,70.4,65.5,61.0,67.0,64.1,60.0,100,95,86,29.80,29.70,7,3,11,0.00
2013-6-28,76.5,64.0,55.6,71.0,62.5,55.0,100,95,80,29.70,29.41,9,2,18,0.38
2013-6-29,82.2,73.8,66.0,71.0,67.5,65.0,99,82,59,29.62,29.44,22,7,23,0.00
2013-6-30,84.3,73.0,65.3,71.0,67.3,64.0,97,83,56,29.85,29.62,20,4,28,0.68
2013-7-1,76.3,71.8,67.6,73.0,70.3,67.0,100,95,81,29.99,29.85,7,2,10,0.47
2013-7-2,83.0,70.5,61.0,74.0,68.2,60.0,99,92,74,30.14,29.99,9,3,19,0.00
2013-7-3,85.1,72.7,60.9,73.0,66.9,60.0,98,83,62,30.15,30.06,11,3,15,0.00
2013-7-4,91.2,81.1,72.0,74.0,70.7,68.0,94,72,48,30.12,30.00,13,6,21,0.00
2013-7-5,91.6,82.0,73.7,74.0,71.4,69.0,90,71,49,30.07,29.95,15,5,22,0.00
2013-7-6,85.9,78.7,72.3,72.0,68.9,64.0,88,73,52,30.00,29.92,13,5,23,0.00
2013-7-7,89.3,77.7,68.6,75.0,66.6,59.0,82,69,51,29.95,29.84,10,3,13,0.00
2013-7-8,83.4,74.5,64.0,76.0,69.9,63.0,95,86,69,30.00,29.84,12,1,15,0.73
2013-7-9,74.0,67.8,63.5,68.0,65.1,62.0,97,91,79,30.04,29.99,7,1,10,0.00
2013-7-10,79.6,70.0,64.7,74.0,68.5,64.0,97,95,80,30.01,29.72,9,3,13,0.66
2013-7-11,82.4,73.9,66.4,73.0,69.9,62.0,98,88,65,29.88,29.68,9,2,13,0.11
2013-7-12,79.6,69.5,62.1,63.0,59.8,57.0,87,72,48,30.15,29.89,10,2,13,0.00
2013-7-13,79.9,69.7,61.0,70.0,63.8,57.0,94,82,68,30.25,30.15,6,1,10,0.00
2013-7-14,86.3,77.2,67.6,72.0,69.2,67.0,98,78,54,30.24,30.14,10,2,14,0.00
2013-7-15,90.7,79.3,70.3,72.0,68.4,65.0,92,72,43,30.14,30.04,13,2,18,0.00
2013-7-16,89.5,79.4,69.4,72.0,67.2,63.0,83,68,47,30.10,30.06,11,2,18,0.00
2013-7-17,91.4,80.8,69.6,73.0,68.2,66.0,87,67,47,30.11,29.90,10,2,13,0.00
2013-7-18,90.1,79.6,71.6,76.0,71.5,69.0,95,77,55,29.94,29.87,12,2,21,0.03
2013-7-19,93.2,82.3,70.4,74.0,71.0,69.0,96,71,47,29.87,29.64,16,6,38,0.00
2013-7-20,87.0,78.9,69.8,72.0,65.7,61.0,79,64,53,29.73,29.58,16,5,32,0.00
2013-7-21,81.1,71.2,63.7,70.0,64.3,60.0,95,79,53,29.93,29.73,7,2,12,0.01
2013-7-22,79.2,68.6,62.9,69.0,65.4,62.0,98,90,68,29.97,29.84,6,1,10,0.00
2013-7-23,76.5,68.1,64.8,70.0,66.2,64.0,98,93,76,29.84,29.48,9,1,11,1.53
2013-7-24,80.5,71.3,56.7,69.0,62.9,48.0,98,76,55,29.91,29.51,22,5,24,0.00
2013-7-25,69.3,60.6,53.6,58.0,52.4,45.0,92,75,59,30.06,29.92,9,2,14,0.00
2013-7-26,74.7,64.6,60.1,66.0,60.9,58.0,98,88,67,30.03,29.90,11,3,16,0.29
2013-7-27,82.6,70.0,58.4,63.0,59.3,55.0,95,72,41,30.00,29.93,10,4,15,0.00
2013-7-28,80.1,69.0,59.9,70.0,64.3,59.0,98,86,64,29.95,29.90,7,2,13,0.05
2013-7-29,83.0,72.2,65.0,71.0,66.4,63.0,98,84,51,29.98,29.89,13,3,16,0.00
2013-7-30,78.6,69.3,59.3,63.0,56.3,53.0,93,65,44,30.04,29.98,12,3,20,0.00
2013-7-31,79.9,69.2,58.1,65.0,58.4,54.0,95,70,43,30.08,29.98,7,2,10,0.00
2013-8-1,79.0,67.0,59.5,66.0,61.5,58.0,96,83,53,29.98,29.81,13,4,21,0.46
2013-8-2,80.3,69.9,63.1,66.0,60.0,53.0,98,74,39,29.81,29.73,14,3,21,0.67
2013-8-3,78.6,68.9,61.5,62.0,56.5,53.0,84,66,42,29.79,29.71,14,5,23,0.00
2013-8-4,76.0,65.0,57.0,60.0,54.2,50.0,86,69,49,29.84,29.72,13,4,22,0.00
2013-8-5,73.2,62.0,52.5,50.0,45.3,36.0,90,59,26,29.99,29.83,22,5,27,0.00
2013-8-6,76.8,63.1,51.3,58.0,50.4,45.0,80,65,43,30.09,30.00,9,2,14,0.00
2013-8-7,78.1,65.6,53.2,61.0,55.2,51.0,96,72,40,30.12,30.04,13,3,19,0.00
2013-8-8,81.8,71.6,63.1,70.0,64.5,56.0,93,79,61,30.05,29.93,13,6,21,0.00
2013-8-9,74.4,71.5,69.9,73.0,69.8,68.0,97,94,88,29.93,29.66,15,6,25,1.10
2013-8-10,79.0,70.4,57.8,69.0,57.5,46.0,97,67,32,29.95,29.71,19,5,26,0.00
2013-8-11,77.0,65.4,53.1,58.0,52.6,49.0,88,66,41,30.02,29.94,9,3,14,0.00
2013-8-12,78.6,68.5,59.6,63.0,55.5,52.0,80,65,45,29.96,29.86,10,2,14,0.00
2013-8-13,72.0,66.8,62.3,68.0,62.9,57.0,94,87,81,29.86,29.62,8,2,15,0.01
2013-8-14,71.3,63.4,56.2,63.0,52.8,48.0,96,70,50,29.89,29.59,22,7,28,0.00
2013-8-15,73.0,62.3,51.7,55.0,50.1,47.0,88,67,44,30.04,29.89,14,5,21,0.00
2013-8-16,76.3,64.6,54.4,58.0,52.3,49.0,84,66,43,30.13,30.03,10,3,15,0.00
2013-8-17,78.3,66.2,55.3,62.0,55.0,51.0,87,70,40,30.22,30.13,8,1,11,0.00
2013-8-18,77.0,66.7,56.9,65.0,59.4,56.0,98,79,48,30.21,30.01,5,1,9,0.00
2013-8-19,78.5,68.7,59.2,63.0,59.7,57.0,93,74,54,30.02,29.89,10,3,14,0.00
2013-8-20,83.4,71.6,62.4,65.0,60.1,57.0,85,69,42,30.03,29.92,9,2,12,0.00
2013-8-21,84.7,73.6,64.5,67.0,61.3,58.0,82,67,40,30.07,29.95,9,3,14,0.00
2013-8-22,85.5,73.6,65.0,70.0,64.6,60.0,94,75,43,29.96,29.75,12,4,16,0.05
2013-8-23,76.5,67.4,55.9,67.0,56.4,48.0,95,70,39,30.07,29.75,19,5,23,0.00
2013-8-24,74.7,62.1,50.5,54.0,48.6,43.0,92,65,33,30.28,30.08,9,1,14,0.00
2013-8-25,79.0,66.7,53.1,57.0,52.2,44.0,87,63,30,30.30,30.10,15,3,16,0.00
2013-8-26,77.9,69.5,60.9,67.0,62.1,54.0,95,78,60,30.10,29.79,10,4,18,0.03
2013-8-27,82.8,73.0,66.1,68.0,65.7,63.0,97,79,53,29.83,29.77,8,2,10,0.00
2013-8-28,84.0,71.9,62.9,70.0,65.9,62.0,99,83,56,29.92,29.78,11,2,15,0.05
2013-8-29,64.7,62.6,59.2,64.0,61.7,58.0,100,96,90,30.02,29.88,8,1,12,0.24
2013-8-30,82.2,69.5,57.8,67.0,62.9,58.0,100,81,55,29.96,29.75,8,2,13,0.00
2013-8-31,78.3,72.2,67.4,74.0,69.3,65.0,98,91,76,29.76,29.69,9,3,13,0.06
2013-9-1,82.0,73.5,69.1,73.0,69.0,65.0,100,86,69,29.80,29.71,10,2,16,0.20
2013-9-2,75.4,71.0,65.6,74.0,70.4,66.0,100,98,90,29.79,29.63,9,2,16,2.11
2013-9-3,75.3,67.6,59.3,68.0,63.1,56.0,100,86,71,29.73,29.63,9,2,14,0.00
2013-9-4,77.7,66.0,56.9,58.0,55.2,51.0,94,71,42,29.85,29.73,14,5,20,0.00
2013-9-5,67.4,59.7,46.2,57.0,48.3,39.0,88,68,38,30.10,29.79,13,3,19,0.00
2013-9-6,66.6,54.5,42.5,48.0,41.7,35.0,88,65,35,30.19,30.02,9,2,14,0.00
2013-9-7,76.3,62.4,51.1,58.0,48.1,42.0,80,61,33,30.02,29.78,10,3,16,0.00
2013-9-8,66.6,60.3,46.2,58.0,46.8,40.0,80,62,42,30.03,29.68,22,6,29,0.00
2013-9-9,67.3,54.8,42.3,50.0,43.2,37.0,87,67,41,30.17,30.03,11,3,15,0.00
2013-9-10,73.5,64.6,53.6,68.0,61.3,49.0,96,89,79,30.07,29.96,13,4,22,0.03
2013-9-11,90.3,78.1,67.1,75.0,70.7,64.0,100,80,52,29.99,29.85,18,5,33,0.02
2013-9-12,79.2,69.6,65.2,75.0,67.3,63.0,100,92,73,29.85,29.59,13,4,32,1.56
2013-9-13,71.8,64.8,55.7,68.0,61.5,51.0,100,89,70,29.71,29.53,14,4,23,0.01
2013-9-14,63.4,56.2,49.8,52.0,50.4,48.0,94,81,65,29.99,29.71,13,3,21,0.00
2013-9-15,66.6,55.6,46.2,53.0,48.9,45.0,100,80,50,30.09,29.98,11,3,13,0.00
2013-9-16,63.4,55.3,42.1,54.0,47.0,34.0,86,74,58,30.20,29.94,15,5,26,0.00
2013-9-17,62.0,48.2,36.0,47.0,38.3,34.0,93,71,42,30.38,30.20,11,2,13,0.00
2013-9-18,70.9,56.4,43.3,49.0,42.8,37.0,90,64,31,30.27,30.08,7,2,12,0.00
2013-9-19,76.0,62.1,50.8,59.0,50.1,46.0,83,67,39,30.08,29.98,7,2,9,0.00
2013-9-20,75.8,62.4,50.1,59.0,54.6,49.0,98,78,47,30.03,29.94,10,2,13,0.00
2013-9-21,73.2,61.5,49.9,62.0,56.9,50.0,100,86,59,29.95,29.64,15,6,28,0.00
2013-9-22,66.6,60.4,48.6,65.0,53.9,41.0,97,80,51,29.77,29.52,18,7,25,0.71
2013-9-23,57.2,48.6,42.9,42.0,39.3,37.0,86,71,54,29.95,29.78,21,7,28,0.00
2013-9-24,63.2,51.3,42.2,43.0,40.0,37.0,84,67,42,29.93,29.77,21,7,27,0.00
2013-9-25,66.6,54.4,44.9,51.0,46.1,42.0,88,74,55,29.93,29.82,10,2,16,0.00
2013-9-26,65.3,55.4,46.0,52.0,47.6,44.0,96,77,52,30.09,29.93,10,1,11,0.00
2013-9-27,65.2,56.7,52.5,54.0,50.5,49.0,92,81,59,30.21,30.09,9,1,14,0.00
2013-9-28,71.5,57.1,47.1,56.0,50.5,46.0,97,80,49,30.28,30.21,11,1,14,0.00
2013-9-29,67.3,54.5,44.9,55.0,48.7,45.0,100,83,47,30.21,30.07,9,2,11,0.00
2013-9-30,68.4,53.2,39.8,53.0,47.3,40.0,100,84,48,30.07,29.92,7,1,11,0.00
2013-10-1,74.2,59.8,46.7,59.0,51.6,46.0,98,77,44,29.92,29.80,15,2,19,0.00
2013-10-2,77.0,65.6,54.5,61.0,55.6,50.0,85,71,51,29.88,29.77,16,5,24,0.00
2013-10-3,74.2,62.8,53.2,53.0,49.1,45.0,80,63,36,30.02,29.88,8,2,12,0.00
2013-10-4,62.0,56.7,49.6,56.0,52.3,48.0,95,85,67,30.03,29.98,6,0,8,0.00
2013-10-5,62.7,59.0,56.3,56.0,53.7,48.0,94,83,67,30.06,29.99,5,0,8,0.00
2013-10-6,58.6,52.3,48.5,56.0,50.7,47.0,99,94,86,30.18,30.05,8,1,13,0.16
2013-10-7,72.1,59.1,52.9,68.0,57.9,51.0,100,96,84,30.08,29.70,26,4,37,0.80
2013-10-8,62.6,52.9,41.5,51.0,41.0,34.0,88,67,35,30.32,29.82,19,5,24,0.00
2013-10-9,60.4,45.9,34.9,45.0,39.2,34.0,98,80,44,30.44,30.32,7,1,10,0.00
2013-10-10,57.0,47.4,38.2,49.0,43.1,35.0,100,87,45,30.32,30.14,2,0,7,0.00
2013-10-11,68.6,54.2,43.5,52.0,46.7,43.0,100,79,39,30.14,30.06,6,1,11,0.00
2013-10-12,53.6,50.0,43.8,53.0,48.8,43.0,98,96,92,30.35,30.12,6,0,11,0.00
2013-10-13,56.6,48.1,40.3,49.0,45.0,40.0,99,90,68,30.40,30.33,8,1,14,0.00
2013-10-14,65.3,51.3,38.5,49.0,44.2,38.0,100,79,51,30.34,30.17,8,2,12,0.00
2013-10-15,62.4,56.4,51.9,54.0,50.9,47.0,97,82,70,30.21,30.12,8,1,10,0.00
2013-10-16,58.6,52.9,48.5,53.0,49.5,46.0,100,89,66,30.12,29.84,8,1,10,0.00
2013-10-17,71.8,58.5,48.6,56.0,48.5,42.0,100,73,35,29.84,29.64,14,4,18,0.00
2013-10-18,63.5,56.4,48.3,59.0,46.9,34.0,100,73,49,29.82,29.51,21,7,25,0.12
2013-10-19,64.8,53.1,41.8,44.0,40.0,35.0,83,63,40,29.89,29.67,9,4,16,0.00
2013-10-20,58.9,50.5,43.3,47.0,38.0,32.0,91,64,41,29.94,29.61,21,8,30,0.00
2013-10-21,64.2,51.1,39.2,43.0,37.1,34.0,82,61,39,30.04,29.90,16,5,20,0.00
2013-10-22,58.6,51.4,43.1,49.0,43.7,33.0,88,75,64,29.90,29.64,21,6,23,0.00
2013-10-23,51.4,43.9,35.3,34.0,31.2,27.0,82,62,41,29.72,29.52,12,1,16,0.00
2013-10-24,48.3,42.3,35.2,35.0,29.2,25.0,81,61,42,29.80,29.58,25,8,33,0.00
2013-10-25,46.7,38.6,30.6,32.0,27.4,23.0,93,66,43,30.07,29.81,18,5,23,0.00
2013-10-26,51.0,42.1,31.5,32.0,27.4,24.0,88,59,37,30.07,29.80,20,7,32,0.00
2013-10-27,51.7,45.1,36.9,36.0,30.0,24.0,74,57,41,29.98,29.72,18,6,26,0.00
2013-10-28,54.1,41.2,30.1,34.0,29.0,21.0,81,63,40,30.29,29.98,15,6,28,0.00
2013-10-29,46.2,34.8,26.4,24.0,17.6,12.0,76,52,27,30.40,30.29,9,1,12,0.00
2013-10-30,48.0,38.1,29.4,36.0,27.7,15.0,88,67,52,30.30,30.14,7,1,12,0.00
2013-10-31,59.2,45.2,31.5,58.0,43.2,31.0,99,92,79,30.18,29.71,19,5,28,0.04
2013-11-1,66.9,61.9,55.9,61.0,54.5,44.0,95,78,62,29.70,29.33,31,12,46,0.08
2013-11-2,62.7,52.8,45.1,48.0,41.5,38.0,93,68,40,29.67,29.52,14,3,19,0.01
2013-11-3,45.8,36.5,26.1,42.0,20.9,8.0,87,56,29,30.37,29.68,20,7,26,0.00
2013-11-4,39.8,30.1,23.3,17.0,13.4,8.0,69,52,28,30.65,30.37,8,1,14,0.00
2013-11-5,48.3,35.6,23.5,32.0,23.7,16.0,83,63,45,30.66,30.44,10,3,15,0.00
2013-11-6,58.6,49.0,38.0,45.0,39.3,32.0,86,70,52,30.44,29.93,22,7,27,0.00
2013-11-7,60.5,51.9,38.5,55.0,45.5,28.0,87,79,65,29.94,29.61,26,10,34,0.03
2013-11-8,44.5,36.5,29.5,31.0,23.5,20.0,76,60,45,30.01,29.73,20,9,32,0.00
2013-11-9,42.1,36.5,30.6,26.0,21.2,18.0,66,55,41,30.14,29.95,14,7,23,0.00
2013-11-10,47.3,39.8,33.1,39.0,33.1,26.0,94,77,65,29.95,29.67,18,6,26,0.02
2013-11-11,49.1,41.9,34.6,30.0,25.1,20.0,70,53,33,30.02,29.78,23,8,32,0.00
2013-11-12,43.9,31.9,24.8,33.0,18.6,12.0,88,59,45,30.10,29.80,16,9,29,0.01
2013-11-13,33.1,26.4,20.2,14.0,10.4,6.0,69,52,35,30.23,30.07,16,7,26,0.00
2013-11-14,49.2,37.5,24.7,26.0,19.4,12.0,64,49,38,30.06,29.98,16,5,26,0.00
2013-11-15,56.3,44.7,33.7,24.0,15.1,11.0,48,32,17,30.11,30.03,10,4,16,0.00
2013-11-16,58.4,46.8,37.5,29.0,25.1,21.0,71,44,25,30.24,30.11,8,2,10,0.00
2013-11-17,46.2,37.9,31.6,46.0,34.9,27.0,99,89,71,30.24,29.80,7,0,10,0.02
2013-11-18,61.3,52.8,44.1,56.0,42.7,30.0,100,72,39,29.79,29.45,23,8,30,0.25
2013-11-19,44.5,35.4,28.2,30.0,18.7,12.0,65,51,40,30.23,29.57,27,13,36,0.00
2013-11-20,38.0,29.7,25.0,14.0,11.3,7.0,59,48,28,30.57,30.23,18,7,28,0.00
2013-11-21,44.8,33.8,21.1,28.0,15.3,6.0,68,49,20,30.58,30.30,9,2,13,0.00
2013-11-22,42.3,39.0,37.6,42.0,36.5,28.0,100,92,63,30.30,29.75,6,1,11,0.12
2013-11-23,43.3,35.6,25.1,43.0,23.7,7.0,100,64,36,29.86,29.69,25,10,31,0.01
2013-11-24,25.1,19.6,15.4,17.0,1.3,-6.0,86,47,29,30.10,29.70,31,16,47,0.02
2013-11-25,30.0,21.3,12.3,12.0,-0.9,-10.0,55,39,22,30.30,30.11,18,8,28,0.00
2013-11-26,35.0,31.0,27.0,31.0,21.3,9.0,96,69,44,30.25,30.02,12,4,18,0.10
2013-11-27,50.7,42.1,31.8,51.0,41.3,27.0,100,97,75,30.01,29.19,18,6,30,1.87
2013-11-28,34.6,26.6,18.0,28.0,10.7,0.0,81,53,31,30.35,29.36,30,12,39,0.00
2013-11-29,28.5,20.1,13.5,11.0,5.6,-1.0,83,56,29,30.69,30.35,14,4,20,0.00
2013-11-30,28.5,20.2,8.4,17.0,8.7,3.0,80,62,45,30.75,30.38,11,3,16,0.00
2013-12-1,33.4,30.6,27.0,32.0,26.6,17.0,98,85,67,30.38,29.98,6,1,12,0.05
2013-12-2,37.0,34.5,32.8,37.0,34.1,32.0,100,98,97,29.98,29.86,5,1,9,0.00
2013-12-3,47.4,36.3,31.0,37.0,31.4,28.0,100,84,51,29.88,29.80,12,4,19,0.00
2013-12-4,39.3,32.9,27.5,28.0,24.7,22.0,92,73,54,30.13,29.88,11,3,19,0.00
2013-12-5,37.0,33.1,30.7,37.0,30.1,24.0,98,89,76,30.15,29.85,5,0,9,0.02
2013-12-6,44.6,40.7,32.5,45.0,36.5,27.0,100,86,54,30.08,29.80,15,4,22,0.10
2013-12-7,33.8,29.9,23.0,30.0,23.2,14.0,96,77,51,30.37,30.00,19,4,23,0.06
2013-12-8,27.2,23.9,18.8,17.0,13.8,12.0,79,66,53,30.52,30.37,9,2,12,0.00
2013-12-9,32.2,27.3,22.2,31.0,24.1,13.0,96,88,62,30.44,29.82,4,0,8,0.26
2013-12-10,32.8,28.1,18.4,32.0,24.1,11.0,96,85,68,29.89,29.72,14,1,20,0.04
2013-12-11,29.7,21.9,15.4,16.0,12.9,11.0,87,69,49,30.11,29.89,14,6,26,0.00
2013-12-12,20.0,15.5,10.0,17.0,2.1,-7.0,87,59,30,30.20,29.97,19,6,26,0.00
2013-12-13,24.1,15.8,5.2,16.0,5.5,-6.0,80,64,56,30.35,29.89,14,7,22,0.00
2013-12-14,11.4,7.4,2.6,8.0,-3.8,-11.0,85,62,40,30.56,30.19,12,3,15,0.11
2013-12-15,28.2,18.9,11.4,25.0,15.3,8.0,91,85,77,30.16,29.42,15,6,19,0.45
2013-12-16,24.8,18.6,8.8,15.0,6.4,-2.0,83,61,37,30.13,29.66,21,8,32,0.00
2013-12-17,12.3,6.0,-3.5,9.0,-0.9,-11.0,85,74,54,30.21,29.97,8,2,12,0.05
2013-12-18,30.9,22.9,12.4,18.0,15.6,9.0,87,75,55,29.99,29.85,23,6,25,0.04
2013-12-19,39.3,31.7,25.4,25.0,20.4,18.0,76,64,48,30.03,29.88,15,6,21,0.00
2013-12-20,44.9,38.5,31.2,36.0,28.6,24.0,80,68,59,30.04,29.84,11,3,15,0.00
2013-12-21,57.3,47.4,38.0,46.0,38.8,30.0,86,72,59,29.86,29.77,13,4,19,0.00
2013-12-22,51.1,39.2,32.7,48.0,37.7,32.0,97,94,85,29.85,29.73,13,3,15,0.06
2013-12-23,36.0,31.3,30.4,36.0,26.6,-99.9,100,95,98,30.06,0.00,21,-30,21,0.26
2013-12-24,33.4,27.7,18.8,33.0,13.9,-99.9,97,62,49,30.16,30.01,19,-6,30,0.00
2013-12-25,19.2,14.3,7.4,4.0,-0.2,-5.0,68,53,36,30.49,30.17,22,7,28,0.00
2013-12-26,25.8,20.9,15.1,23.0,15.0,2.0,92,78,55,30.46,30.07,12,2,18,0.06
2013-12-27,31.9,26.5,21.8,20.0,18.3,16.0,86,72,56,30.22,30.14,18,7,20,0.00
2013-12-28,43.2,33.5,25.0,28.0,23.5,18.0,79,68,51,30.15,29.93,15,5,21,0.00
2013-12-29,38.9,34.3,32.1,32.0,28.5,26.0,97,80,64,29.98,29.46,7,2,12,0.87
2013-12-30,36.2,28.0,9.7,34.0,20.7,1.0,97,75,51,30.13,29.50,26,8,31,0.01
2013-12-31,20.5,13.2,3.5,12.0,1.4,-8.0,80,60,42,30.13,29.98,8,3,18,0.00
2014-1-1,22.2,16.4,12.3,7.0,4.4,2.0,72,60,46,30.34,30.13,14,5,26,0.00
2014-1-2,15.2,6.4,-1.8,7.0,1.1,-8.0,84,79,68,30.32,29.89,11,5,20,0.12